Time;durP1;ratioP1;P1;durP2;ratioP2;P2;SDS_P1;SDS_P2;PMS_P1;PMS_P2;Temp;Humidity;BMP_temperature;BMP_pressure;BME280_temperature;BME280_humidity;BME280_pressure;Samples;Min_cycle;Max_cycle;Signal;HPM_P1;HPM_P2
2024/03/02 00:00:13;;;;;;;5.72;3.05;;;7.50;99.90;;;;;;7372267;19;21474;-67
2024/03/02 00:02:44;;;;;;;5.50;3.67;;;7.60;99.90;;;;;;7371953;19;20026;-67
2024/03/02 00:05:12;;;;;;;5.70;3.20;;;7.60;99.90;;;;;;7372619;19;20891;-66
2024/03/02 00:07:42;;;;;;;5.40;3.47;;;7.60;99.90;;;;;;7371827;19;20359;-66
2024/03/02 00:10:11;;;;;;;6.60;3.70;;;7.60;99.90;;;;;;7370503;19;20019;-71
2024/03/02 00:12:39;;;;;;;4.75;2.80;;;7.60;99.90;;;;;;7370976;19;20497;-67
2024/03/02 00:15:36;;;;;;;5.25;3.60;;;7.60;99.90;;;;;;7368952;19;20497;-67
2024/03/02 00:18:05;;;;;;;5.75;3.30;;;7.60;99.90;;;;;;7373606;19;20025;-71
2024/03/02 00:20:32;;;;;;;5.60;3.60;;;7.50;99.90;;;;;;7370744;19;20574;-71
2024/03/02 00:23:06;;;;;;;5.53;3.20;;;7.60;99.90;;;;;;7371058;19;20028;-67
2024/03/02 00:25:55;;;;;;;5.07;2.88;;;7.60;99.90;;;;;;7370523;19;20014;-67
2024/03/02 00:28:29;;;;;;;5.47;3.05;;;7.60;99.90;;;;;;7370874;19;20014;-72
2024/03/02 00:31:11;;;;;;;4.32;2.40;;;7.60;99.90;;;;;;7369090;19;20053;-72
2024/03/02 00:33:47;;;;;;;4.22;3.03;;;7.70;99.90;;;;;;7370576;19;20057;-67
2024/03/02 00:36:24;;;;;;;5.43;3.17;;;7.70;99.90;;;;;;7370339;19;20814;-66
2024/03/02 00:38:53;;;;;;;4.97;3.03;;;7.80;99.90;;;;;;7371927;19;20018;-67
2024/03/02 00:41:30;;;;;;;3.60;2.90;;;7.80;99.90;;;;;;7370069;19;20014;-66
2024/03/02 00:44:05;;;;;;;6.50;3.42;;;7.80;99.90;;;;;;7368640;19;20025;-67
2024/03/02 00:46:43;;;;;;;4.80;2.88;;;7.80;99.90;;;;;;7370776;19;20031;-66
2024/03/02 00:49:19;;;;;;;6.00;3.65;;;7.80;99.90;;;;;;7369885;19;20022;-67
2024/03/02 00:51:50;;;;;;;4.80;3.20;;;7.80;99.90;;;;;;7374261;19;20082;-72
2024/03/02 00:54:25;;;;;;;5.07;3.07;;;7.80;99.90;;;;;;7376288;19;20109;-72
2024/03/02 00:56:56;;;;;;;4.35;3.13;;;7.70;99.90;;;;;;7377360;19;21215;-73
2024/03/02 00:59:23;;;;;;;5.45;3.40;;;7.80;99.90;;;;;;7375826;19;20022;-73
2024/03/02 01:01:53;;;;;;;4.43;3.00;;;7.80;99.90;;;;;;7378810;19;20025;-73
2024/03/02 01:04:21;;;;;;;4.78;3.08;;;7.80;99.90;;;;;;7372851;19;20025;-72
2024/03/02 01:06:48;;;;;;;6.28;3.20;;;7.70;99.90;;;;;;7377299;19;20043;-73
2024/03/02 01:09:14;;;;;;;4.68;3.28;;;7.70;99.90;;;;;;7371284;19;20013;-72
2024/03/02 01:11:41;;;;;;;4.35;2.90;;;7.70;99.90;;;;;;7372923;19;20571;-72
2024/03/02 01:14:08;;;;;;;7.47;3.60;;;7.60;99.90;;;;;;7373302;19;20022;-73
2024/03/02 01:16:37;;;;;;;6.45;3.35;;;7.60;99.90;;;;;;7377895;19;20106;-67
2024/03/02 01:19:07;;;;;;;5.45;3.80;;;7.60;99.90;;;;;;7375580;19;20097;-72
2024/03/02 01:21:37;;;;;;;5.85;3.30;;;7.60;99.90;;;;;;7378917;19;20022;-72
2024/03/02 01:24:04;;;;;;;5.82;3.42;;;7.60;99.90;;;;;;7372941;19;20029;-72
2024/03/02 01:26:31;;;;;;;5.10;3.90;;;7.60;99.90;;;;;;7376376;19;20014;-73
2024/03/02 01:28:58;;;;;;;4.32;3.15;;;7.60;99.90;;;;;;7375129;19;20021;-73
2024/03/02 01:31:24;;;;;;;5.03;2.60;;;7.60;99.90;;;;;;7376342;19;20374;-68
2024/03/02 01:33:51;;;;;;;4.47;2.90;;;7.70;99.90;;;;;;7372910;19;20546;-67
2024/03/02 01:36:17;;;;;;;5.60;3.35;;;7.60;99.90;;;;;;7375551;19;20077;-67
2024/03/02 01:38:44;;;;;;;5.70;3.30;;;7.70;99.90;;;;;;7371344;19;20497;-68
2024/03/02 01:41:11;;;;;;;5.28;3.35;;;7.70;99.90;;;;;;7371667;19;20090;-68
2024/03/02 01:43:39;;;;;;;5.50;3.78;;;7.60;99.90;;;;;;7372587;19;20831;-67
2024/03/02 01:46:06;;;;;;;6.68;3.38;;;7.60;99.90;;;;;;7369694;19;20075;-67
2024/03/02 01:48:34;;;;;;;5.05;3.50;;;7.60;99.90;;;;;;7377405;19;20011;-67
2024/03/02 01:51:01;;;;;;;6.20;3.78;;;7.50;99.90;;;;;;7373867;19;20609;-72
2024/03/02 01:53:29;;;;;;;5.88;3.88;;;7.50;99.90;;;;;;7374917;19;20045;-67
2024/03/02 01:55:56;;;;;;;4.82;3.67;;;7.50;99.90;;;;;;7372039;19;20014;-72
2024/03/02 01:58:27;;;;;;;5.13;3.38;;;7.50;99.90;;;;;;7374645;19;20082;-72
2024/03/02 02:00:54;;;;;;;5.32;3.95;;;7.50;99.90;;;;;;7366555;19;20019;-72
2024/03/02 02:03:22;;;;;;;6.05;3.78;;;7.40;99.90;;;;;;7369770;19;20014;-67
2024/03/02 02:05:49;;;;;;;6.20;4.10;;;7.40;99.90;;;;;;7366694;19;20021;-67
2024/03/02 02:08:16;;;;;;;4.72;3.13;;;7.50;99.90;;;;;;7361675;19;20457;-66
2024/03/02 02:10:44;;;;;;;5.10;3.75;;;7.50;99.90;;;;;;7374058;19;20022;-66
2024/03/02 02:13:11;;;;;;;5.05;3.58;;;7.60;99.90;;;;;;7370633;19;20025;-72
2024/03/02 02:15:38;;;;;;;5.30;3.60;;;7.60;99.90;;;;;;7373981;19;20021;-71
2024/03/02 02:18:06;;;;;;;5.60;3.63;;;7.60;99.90;;;;;;7369228;19;20086;-71
2024/03/02 02:20:34;;;;;;;4.53;3.17;;;7.60;99.90;;;;;;7370385;19;20098;-67
2024/03/02 02:23:05;;;;;;;5.40;3.78;;;7.50;99.90;;;;;;7372005;19;20049;-67
2024/03/02 02:25:32;;;;;;;6.63;3.72;;;7.50;99.90;;;;;;7375575;19;20011;-71
2024/03/02 02:27:59;;;;;;;4.82;3.45;;;7.50;99.90;;;;;;7370825;19;20019;-72
2024/03/02 02:30:29;;;;;;;5.07;3.60;;;7.60;99.90;;;;;;7367806;19;20014;-71
2024/03/02 02:32:56;;;;;;;5.55;3.70;;;7.60;99.90;;;;;;7374655;19;20617;-71
2024/03/02 02:35:24;;;;;;;5.75;3.60;;;7.60;99.90;;;;;;7368127;19;20010;-70
2024/03/02 02:37:53;;;;;;;6.75;3.88;;;7.70;99.90;;;;;;7374028;19;20019;-71
2024/03/02 02:40:21;;;;;;;5.88;3.60;;;7.70;99.90;;;;;;7374317;19;20049;-71
2024/03/02 02:42:47;;;;;;;6.47;3.47;;;7.70;99.90;;;;;;7369279;19;20018;-71
2024/03/02 02:45:14;;;;;;;7.13;3.58;;;7.80;99.90;;;;;;7368396;19;20652;-66
2024/03/02 02:47:42;;;;;;;4.22;3.05;;;7.80;99.90;;;;;;7370082;19;20475;-67
2024/03/02 02:50:09;;;;;;;7.20;3.50;;;7.80;99.90;;;;;;7372646;19;20029;-72
2024/03/02 02:52:39;;;;;;;4.78;3.30;;;7.90;99.90;;;;;;7366559;19;20014;-72
2024/03/02 02:55:11;;;;;;;4.82;3.50;;;7.90;99.90;;;;;;7372539;19;20025;-72
2024/03/02 02:57:39;;;;;;;5.07;3.50;;;7.90;99.90;;;;;;7367199;19;20713;-72
2024/03/02 03:00:13;;;;;;;5.18;3.60;;;7.80;99.90;;;;;;7370814;19;20510;-68
2024/03/02 03:02:44;;;;;;;7.53;3.70;;;7.90;99.90;;;;;;7369751;19;20019;-72
2024/03/02 03:05:12;;;;;;;5.32;3.60;;;7.90;99.90;;;;;;7366037;19;20022;-72
2024/03/02 03:07:44;;;;;;;4.97;3.22;;;7.90;99.90;;;;;;7366346;19;20371;-67
2024/03/02 03:10:10;;;;;;;5.13;3.50;;;7.90;99.90;;;;;;7369952;19;20522;-72
2024/03/02 03:12:37;;;;;;;5.78;3.28;;;7.80;99.90;;;;;;7371346;19;20022;-72
2024/03/02 03:15:08;;;;;;;5.38;3.53;;;7.90;99.90;;;;;;7371579;19;20026;-72
2024/03/02 03:17:35;;;;;;;5.22;3.30;;;7.90;99.90;;;;;;7371131;19;20046;-72
2024/03/02 03:20:04;;;;;;;5.90;3.97;;;7.90;99.90;;;;;;7370385;19;20022;-71
2024/03/02 03:22:32;;;;;;;5.45;3.08;;;7.90;99.90;;;;;;7369101;19;20019;-71
2024/03/02 03:24:58;;;;;;;4.85;3.20;;;7.90;99.90;;;;;;7365399;19;20023;-72
2024/03/02 03:27:24;;;;;;;5.35;3.17;;;8.00;99.90;;;;;;7369860;19;20064;-72
2024/03/02 03:29:54;;;;;;;4.47;2.50;;;7.90;99.90;;;;;;7370024;19;20018;-72
2024/03/02 03:32:21;;;;;;;4.07;2.88;;;8.00;99.90;;;;;;7367457;19;20018;-72
2024/03/02 03:34:49;;;;;;;4.60;2.30;;;8.00;99.90;;;;;;7368946;19;20765;-67
2024/03/02 03:37:16;;;;;;;3.80;2.72;;;8.00;99.90;;;;;;7369873;19;20007;-67
2024/03/02 03:39:43;;;;;;;4.93;3.50;;;8.00;99.90;;;;;;7371079;19;20045;-67
2024/03/02 03:42:11;;;;;;;5.03;3.22;;;7.90;99.90;;;;;;7368788;19;20090;-72
2024/03/02 03:44:40;;;;;;;6.28;3.10;;;7.90;99.90;;;;;;7363779;19;20055;-73
2024/03/02 03:47:07;;;;;;;6.53;3.20;;;7.90;99.90;;;;;;7368126;19;20042;-72
2024/03/02 03:49:35;;;;;;;4.90;2.97;;;7.90;99.90;;;;;;7371355;19;20538;-72
2024/03/02 03:52:03;;;;;;;5.60;3.28;;;7.90;99.90;;;;;;7369194;19;20025;-72
2024/03/02 03:54:37;;;;;;;5.68;3.35;;;7.90;99.90;;;;;;7361392;19;20010;-72
2024/03/02 03:57:07;;;;;;;6.40;3.70;;;7.90;99.90;;;;;;7369633;19;20039;-71
2024/03/02 03:59:37;;;;;;;5.78;3.40;;;7.90;99.90;;;;;;7367944;19;20021;-67
2024/03/02 04:02:04;;;;;;;7.20;3.60;;;7.90;99.90;;;;;;7370177;19;20011;-67
2024/03/02 04:04:33;;;;;;;4.80;3.55;;;7.90;99.90;;;;;;7361801;19;20014;-67
2024/03/02 04:07:00;;;;;;;4.80;3.00;;;7.90;99.90;;;;;;7366069;19;20126;-67
2024/03/02 04:09:27;;;;;;;6.25;2.97;;;7.90;99.90;;;;;;7367406;19;20018;-67
2024/03/02 04:11:54;;;;;;;5.60;3.50;;;7.90;99.90;;;;;;7370322;19;20014;-67
2024/03/02 04:14:21;;;;;;;6.10;3.47;;;7.80;99.90;;;;;;7368179;19;20030;-67
2024/03/02 04:16:48;;;;;;;4.68;2.83;;;7.80;99.90;;;;;;7365516;19;20035;-66
2024/03/02 04:19:14;;;;;;;4.13;3.15;;;7.80;99.90;;;;;;7366287;19;20022;-67
2024/03/02 04:21:41;;;;;;;4.18;3.30;;;7.80;99.90;;;;;;7368065;19;20633;-67
2024/03/02 04:24:08;;;;;;;6.72;3.50;;;7.80;99.90;;;;;;7363446;19;20097;-73
2024/03/02 04:26:35;;;;;;;4.90;3.65;;;7.80;99.90;;;;;;7362735;19;20022;-72
2024/03/02 04:29:01;;;;;;;4.72;3.22;;;7.80;99.90;;;;;;7365706;19;20030;-72
2024/03/02 04:31:28;;;;;;;3.53;2.72;;;7.80;99.90;;;;;;7368876;19;20035;-73
2024/03/02 04:33:55;;;;;;;5.90;3.20;;;7.70;99.90;;;;;;7368226;19;20090;-72
2024/03/02 04:36:24;;;;;;;4.93;3.00;;;7.80;99.90;;;;;;7367023;19;20022;-67
2024/03/02 04:38:51;;;;;;;4.68;3.60;;;7.70;99.90;;;;;;7368555;19;20021;-67
2024/03/02 04:41:18;;;;;;;4.30;3.30;;;7.70;99.90;;;;;;7366167;19;20042;-66
2024/03/02 04:43:45;;;;;;;5.43;2.88;;;7.70;99.90;;;;;;7363511;19;20555;-67
2024/03/02 04:46:11;;;;;;;5.90;3.17;;;7.70;99.90;;;;;;7365425;19;20015;-72
2024/03/02 04:48:38;;;;;;;4.40;2.95;;;7.80;99.90;;;;;;7373176;19;20031;-66
2024/03/02 04:51:04;;;;;;;5.63;3.00;;;7.80;99.90;;;;;;7365211;19;20026;-71
2024/03/02 04:53:30;;;;;;;5.55;2.85;;;7.80;99.90;;;;;;7371336;19;20856;-66
2024/03/02 04:59:22;;;;;;;5.00;3.00;;;7.80;99.90;;;;;;7363386;19;20018;-71
2024/03/02 05:01:48;;;;;;;4.95;3.08;;;7.90;99.90;;;;;;7363250;19;20041;-67
2024/03/02 05:04:14;;;;;;;5.90;2.50;;;7.80;99.90;;;;;;7356536;19;20086;-66
2024/03/02 05:06:41;;;;;;;5.25;3.03;;;7.80;99.90;;;;;;7372611;19;20074;-72
2024/03/02 05:09:08;;;;;;;4.90;3.13;;;7.70;99.90;;;;;;7363373;19;20025;-72
2024/03/02 05:14:07;;;;;;;4.30;3.45;;;7.50;99.90;;;;;;7364892;19;20021;-72
2024/03/02 05:16:41;;;;;;;5.95;3.72;;;7.40;99.90;;;;;;7368846;19;20797;-72
2024/03/02 05:19:08;;;;;;;5.70;3.42;;;7.30;99.90;;;;;;7362364;19;20035;-72
2024/03/02 05:21:35;;;;;;;6.07;3.95;;;7.20;99.90;;;;;;7368070;19;20019;-73
2024/03/02 05:24:01;;;;;;;4.30;3.40;;;7.20;99.90;;;;;;7363244;19;20025;-72
2024/03/02 05:26:27;;;;;;;5.35;3.65;;;7.20;99.90;;;;;;7367727;19;20033;-72
2024/03/02 05:28:53;;;;;;;7.40;4.10;;;7.20;99.90;;;;;;7361231;19;20521;-72
2024/03/02 05:31:19;;;;;;;5.20;3.63;;;7.30;99.90;;;;;;7361270;19;20022;-73
2024/03/02 05:33:46;;;;;;;5.30;3.47;;;7.30;99.90;;;;;;7363660;19;20031;-70
2024/03/02 05:36:12;;;;;;;5.20;3.92;;;7.30;99.90;;;;;;7357199;19;20023;-67
2024/03/02 05:38:42;;;;;;;5.13;3.80;;;7.40;99.90;;;;;;7368189;19;20029;-67
2024/03/02 05:41:11;;;;;;;5.55;3.92;;;7.40;99.90;;;;;;7364805;19;20406;-66
2024/03/02 05:43:38;;;;;;;6.97;3.85;;;7.40;99.90;;;;;;7369551;19;20028;-73
2024/03/02 05:46:07;;;;;;;6.95;3.90;;;7.40;99.90;;;;;;7360278;19;20029;-67
2024/03/02 05:48:34;;;;;;;7.93;4.35;;;7.30;99.90;;;;;;7371864;19;20022;-72
2024/03/02 05:51:01;;;;;;;6.88;3.85;;;7.30;99.90;;;;;;7366970;19;20019;-68
2024/03/02 05:53:27;;;;;;;5.25;3.60;;;7.30;99.90;;;;;;7374038;19;20022;-67
2024/03/02 05:55:55;;;;;;;8.85;4.63;;;7.30;99.90;;;;;;7366665;19;20754;-67
2024/03/02 05:58:32;;;;;;;8.88;4.00;;;7.30;99.90;;;;;;7372466;19;20018;-72
2024/03/02 06:00:59;;;;;;;5.43;3.58;;;7.20;99.90;;;;;;7368652;19;20741;-68
2024/03/02 06:03:25;;;;;;;7.43;4.10;;;7.20;99.90;;;;;;7372181;19;20025;-67
2024/03/02 06:05:51;;;;;;;4.88;3.50;;;7.10;99.90;;;;;;7371169;19;20014;-72
2024/03/02 06:08:18;;;;;;;5.10;3.63;;;7.10;99.90;;;;;;7367170;19;20663;-73
2024/03/02 06:10:45;;;;;;;5.70;3.67;;;7.10;99.90;;;;;;7374218;19;20041;-72
2024/03/02 06:13:12;;;;;;;4.85;3.63;;;7.10;99.90;;;;;;7369030;19;20102;-73
2024/03/02 06:15:38;;;;;;;4.63;3.38;;;7.10;99.90;;;;;;7359909;19;20021;-72
2024/03/02 06:18:07;;;;;;;5.20;3.50;;;7.00;99.90;;;;;;7369414;19;20115;-72
2024/03/02 06:20:34;;;;;;;6.38;3.58;;;7.00;99.90;;;;;;7374705;19;20042;-73
2024/03/02 06:23:01;;;;;;;6.75;3.40;;;7.00;99.90;;;;;;7369430;19;20022;-67
2024/03/02 06:25:28;;;;;;;6.25;3.88;;;6.90;99.90;;;;;;7360943;19;20509;-72
2024/03/02 06:27:54;;;;;;;6.78;3.80;;;6.90;99.90;;;;;;7376230;19;20023;-67
2024/03/02 06:30:20;;;;;;;5.70;3.80;;;6.80;99.90;;;;;;7369116;19;20049;-67
2024/03/02 06:32:46;;;;;;;8.18;3.72;;;6.70;99.90;;;;;;7374001;19;20021;-68
2024/03/02 06:35:12;;;;;;;4.82;4.13;;;6.60;99.90;;;;;;7367229;19;20022;-67
2024/03/02 06:37:42;;;;;;;7.18;3.80;;;6.50;99.90;;;;;;7371456;19;20117;-66
2024/03/02 06:40:08;;;;;;;7.45;3.97;;;6.50;99.90;;;;;;7369278;19;22713;-66
2024/03/02 06:42:35;;;;;;;6.05;4.25;;;6.50;99.90;;;;;;7368231;19;20080;-66
2024/03/02 06:45:02;;;;;;;6.60;4.15;;;6.50;99.90;;;;;;7365939;19;20024;-72
2024/03/02 06:47:29;;;;;;;5.65;4.30;;;6.50;99.90;;;;;;7368180;19;20053;-72
2024/03/02 06:49:57;;;;;;;5.32;4.03;;;6.50;99.90;;;;;;7361308;19;20026;-72
2024/03/02 06:52:23;;;;;;;5.70;3.85;;;6.60;99.90;;;;;;7372355;19;20031;-72
2024/03/02 06:54:49;;;;;;;6.32;3.95;;;6.60;99.90;;;;;;7376826;19;20018;-72
2024/03/02 06:57:16;;;;;;;6.50;4.18;;;6.70;99.90;;;;;;7369783;19;20049;-72
2024/03/02 06:59:43;;;;;;;5.78;4.25;;;6.70;99.90;;;;;;7370650;19;20018;-72
2024/03/02 07:02:09;;;;;;;6.57;4.43;;;6.70;99.90;;;;;;7368735;19;20615;-66
2024/03/02 07:04:38;;;;;;;7.68;4.30;;;6.70;99.90;;;;;;7370815;19;20015;-73
2024/03/02 07:07:07;;;;;;;6.43;4.22;;;6.60;99.90;;;;;;7371600;19;20019;-69
2024/03/02 07:09:36;;;;;;;5.65;3.83;;;6.60;99.90;;;;;;7373661;19;20031;-67
2024/03/02 07:12:05;;;;;;;7.22;3.88;;;6.60;99.90;;;;;;7373401;19;20045;-69
2024/03/02 07:14:55;;;;;;;5.85;3.70;;;6.60;99.90;;;;;;7373321;19;20019;-67
2024/03/02 07:17:21;;;;;;;6.18;3.83;;;6.60;99.90;;;;;;7366616;19;20021;-72
2024/03/02 07:19:47;;;;;;;7.03;3.60;;;6.60;99.90;;;;;;7374145;19;20030;-71
2024/03/02 07:22:14;;;;;;;5.72;3.47;;;6.60;99.90;;;;;;7374780;19;20022;-67
2024/03/02 07:24:45;;;;;;;6.97;3.80;;;6.70;99.90;;;;;;7365826;19;20367;-67
2024/03/02 07:27:13;;;;;;;5.43;4.20;;;6.80;99.90;;;;;;7371332;19;20506;-66
2024/03/02 07:29:39;;;;;;;4.68;3.55;;;6.90;99.90;;;;;;7369131;19;20018;-72
2024/03/02 07:32:06;;;;;;;4.75;3.88;;;7.10;99.90;;;;;;7362436;19;20556;-72
2024/03/02 07:34:33;;;;;;;5.93;4.25;;;7.20;99.90;;;;;;7369358;19;20091;-67
2024/03/02 07:37:00;;;;;;;8.52;3.53;;;7.20;99.90;;;;;;7365237;19;20014;-71
2024/03/02 07:39:26;;;;;;;6.20;3.70;;;7.20;99.90;;;;;;7362016;19;20032;-71
2024/03/02 07:41:53;;;;;;;8.68;3.35;;;7.20;99.90;;;;;;7367557;19;20030;-72
2024/03/02 07:44:19;;;;;;;6.03;2.97;;;7.50;99.90;;;;;;7367277;19;20458;-69
2024/03/02 07:46:46;;;;;;;6.25;3.25;;;7.60;99.90;;;;;;7359850;19;20500;-71
2024/03/02 07:49:16;;;;;;;5.50;2.90;;;7.60;99.90;;;;;;7368685;19;20022;-71
2024/03/02 07:51:43;;;;;;;3.65;2.55;;;7.80;99.90;;;;;;7371647;19;20022;-70
2024/03/02 07:54:10;;;;;;;4.30;2.53;;;8.20;99.90;;;;;;7369573;19;20031;-70
2024/03/02 07:56:36;;;;;;;5.50;2.80;;;8.20;99.90;;;;;;7365617;19;20018;-71
2024/03/02 07:59:03;;;;;;;4.35;2.92;;;8.20;99.90;;;;;;7369562;19;20026;-70
2024/03/02 08:01:31;;;;;;;4.43;2.50;;;8.50;99.90;;;;;;7361301;19;20031;-71
2024/03/02 08:03:59;;;;;;;3.40;2.38;;;8.90;99.90;;;;;;7368560;19;20018;-73
2024/03/02 08:06:29;;;;;;;4.28;2.25;;;9.50;99.90;;;;;;7365277;19;20910;-65
2024/03/02 08:08:59;;;;;;;3.90;2.05;;;9.80;99.90;;;;;;7363717;19;20032;-72
2024/03/02 08:11:27;;;;;;;3.60;2.17;;;10.10;99.90;;;;;;7365801;19;20019;-71
2024/03/02 08:13:54;;;;;;;3.38;2.22;;;10.20;99.90;;;;;;7358475;19;20716;-70
2024/03/02 08:16:23;;;;;;;3.47;2.40;;;9.90;99.90;;;;;;7368396;19;20019;-70
2024/03/02 08:18:50;;;;;;;4.15;2.40;;;9.90;99.90;;;;;;7366220;19;20026;-71
2024/03/02 08:21:16;;;;;;;8.32;2.72;;;9.90;99.90;;;;;;7372916;19;20018;-70
2024/03/02 08:23:43;;;;;;;6.13;2.97;;;9.70;99.90;;;;;;7365828;19;20023;-72
2024/03/02 08:26:10;;;;;;;5.57;3.20;;;9.60;99.90;;;;;;7369792;19;20015;-71
2024/03/02 08:28:37;;;;;;;4.45;2.92;;;9.70;99.90;;;;;;7367563;19;20486;-71
2024/03/02 08:31:07;;;;;;;5.45;3.25;;;9.70;99.90;;;;;;7374060;19;20018;-72
2024/03/02 08:33:33;;;;;;;6.70;3.38;;;10.30;99.90;;;;;;7372117;19;20019;-68
2024/03/02 08:36:00;;;;;;;4.55;3.40;;;10.90;99.90;;;;;;7368682;19;20049;-67
2024/03/02 08:38:26;;;;;;;3.88;2.60;;;11.60;99.90;;;;;;7366819;19;20482;-68
2024/03/02 08:40:53;;;;;;;4.88;2.17;;;12.00;99.90;;;;;;7372883;19;20021;-68
2024/03/02 08:43:20;;;;;;;5.07;2.65;;;12.20;99.90;;;;;;7367727;19;20066;-67
2024/03/02 08:45:47;;;;;;;6.10;2.20;;;12.10;99.90;;;;;;7367464;19;20018;-68
2024/03/02 08:48:13;;;;;;;4.10;2.33;;;12.20;99.90;;;;;;7363857;19;20022;-68
2024/03/02 08:50:39;;;;;;;4.78;2.58;;;12.50;99.90;;;;;;7364583;19;20027;-72
2024/03/02 08:53:06;;;;;;;3.60;2.08;;;13.10;99.90;;;;;;7366225;19;20022;-67
2024/03/02 08:55:32;;;;;;;3.50;2.10;;;13.30;99.90;;;;;;7365712;19;20650;-67
2024/03/02 08:58:20;;;;;;;5.13;2.03;;;13.80;99.90;;;;;;7362738;19;20907;-68
2024/03/02 09:00:49;;;;;;;3.00;1.95;;;14.10;99.90;;;;;;7370223;19;20061;-73
2024/03/02 09:03:16;;;;;;;3.10;1.65;;;14.50;99.90;;;;;;7369293;19;20106;-72
2024/03/02 09:06:02;;;;;;;3.25;1.60;;;14.80;99.90;;;;;;7367611;19;20377;-73
2024/03/02 09:08:28;;;;;;;3.17;1.30;;;15.20;99.90;;;;;;7366568;19;20029;-68
2024/03/02 09:10:56;;;;;;;1.58;1.25;;;15.10;99.90;;;;;;7363078;19;20018;-73
2024/03/02 09:13:44;;;;;;;3.08;1.30;;;15.50;99.90;;;;;;7370793;19;20501;-68
2024/03/02 09:16:11;;;;;;;2.47;1.38;;;15.50;99.90;;;;;;7374968;19;20760;-71
2024/03/02 09:18:37;;;;;;;2.08;1.63;;;15.20;99.90;;;;;;7376671;19;20334;-70
2024/03/02 09:21:27;;;;;;;3.05;1.60;;;14.80;99.90;;;;;;7389118;19;20023;-78
2024/03/02 09:23:53;;;;;;;2.75;1.60;;;14.20;99.90;;;;;;7387871;19;20014;-78
2024/03/02 09:26:20;;;;;;;3.45;2.22;;;13.80;99.90;;;;;;7387131;19;20630;-77
2024/03/02 09:29:06;;;;;;;3.38;1.90;;;13.30;99.90;;;;;;7382872;19;20022;-67
2024/03/02 09:31:33;;;;;;;3.97;2.20;;;12.60;99.90;;;;;;7375912;19;20033;-69
2024/03/02 09:33:59;;;;;;;2.75;2.05;;;12.40;99.90;;;;;;7376634;19;20039;-68
2024/03/02 09:36:45;;;;;;;3.63;1.90;;;12.00;99.90;;;;;;7373740;19;20034;-68
2024/03/02 09:39:11;;;;;;;3.08;2.20;;;11.70;99.90;;;;;;7377132;19;20018;-69
2024/03/02 09:41:38;;;;;;;5.97;2.65;;;11.90;99.90;;;;;;7371386;19;20136;-68
2024/03/02 09:44:25;;;;;;;3.53;2.13;;;11.90;99.90;;;;;;7373872;19;20248;-76
2024/03/02 09:46:54;;;;;;;5.50;2.45;;;11.80;99.90;;;;;;7377626;19;21174;-76
2024/03/02 09:49:20;;;;;;;3.75;1.80;;;11.80;99.90;;;;;;7375253;19;20890;-71
2024/03/02 09:52:07;;;;;;;3.28;2.20;;;11.60;99.90;;;;;;7375204;19;20448;-70
2024/03/02 09:54:33;;;;;;;3.45;2.20;;;11.40;99.90;;;;;;7373911;19;20014;-69
2024/03/02 09:57:04;;;;;;;4.57;2.40;;;11.20;99.90;;;;;;7371781;19;20026;-68
2024/03/02 09:59:50;;;;;;;5.20;2.28;;;11.10;99.90;;;;;;7372345;19;20022;-68
2024/03/02 10:02:16;;;;;;;4.30;2.10;;;11.10;99.90;;;;;;7375946;19;20031;-68
2024/03/02 10:04:44;;;;;;;5.25;2.03;;;11.10;99.90;;;;;;7371207;19;21421;-68
2024/03/02 10:07:31;;;;;;;3.10;1.77;;;11.70;99.90;;;;;;7371022;19;20379;-68
2024/03/02 10:09:57;;;;;;;3.58;1.75;;;12.70;99.90;;;;;;7370619;19;20041;-68
2024/03/02 10:12:23;;;;;;;4.28;1.70;;;13.40;99.90;;;;;;7372149;19;20026;-67
2024/03/02 10:15:10;;;;;;;2.47;1.40;;;14.00;99.90;;;;;;7371059;19;20014;-68
2024/03/02 10:17:36;;;;;;;3.35;1.85;;;14.70;99.90;;;;;;7374438;19;20037;-68
2024/03/02 10:20:25;;;;;;;3.72;1.50;;;14.70;99.90;;;;;;7374411;19;20014;-69
2024/03/02 10:23:13;;;;;;;15.02;11.73;;;14.00;99.90;;;;;;7373526;19;20022;-83
2024/03/02 10:25:40;;;;;;;4.95;1.92;;;14.10;99.90;;;;;;7382765;19;20880;-70
2024/03/02 10:28:06;;;;;;;4.20;2.13;;;14.20;99.90;;;;;;7372532;19;20044;-68
2024/03/02 10:30:53;;;;;;;4.00;2.00;;;14.90;99.90;;;;;;7372382;19;20031;-68
2024/03/02 10:33:40;;;;;;;4.18;2.28;;;15.50;99.90;;;;;;7379126;19;20022;-76
2024/03/02 10:36:07;;;;;;;3.55;2.22;;;15.80;99.90;;;;;;7385215;19;20018;-77
2024/03/02 10:38:33;;;;;;;5.07;2.13;;;16.20;99.90;;;;;;7385188;19;20029;-77
2024/03/02 10:41:11;;;;;;;4.22;1.55;;;16.10;99.90;;;;;;7381231;19;20016;-76
2024/03/02 10:44:09;;;;;;;3.72;2.05;;;15.80;99.90;;;;;;7386653;19;20086;-76
2024/03/02 10:46:56;;;;;;;3.78;1.60;;;15.20;99.90;;;;;;7384231;19;20018;-68
2024/03/02 10:49:48;;;;;;;17.00;11.75;;;16.20;99.90;;;;;;7370575;19;20014;-63
2024/03/02 10:52:14;;;;;;;17.15;12.93;;;17.20;98.50;;;;;;7369478;19;20019;-68
2024/03/02 10:55:00;;;;;;;2.97;0.85;;;17.10;94.30;;;;;;7371333;19;20496;-68
2024/03/02 10:57:40;;;;;;;5.35;2.55;;;17.70;93.50;;;;;;7367802;19;20026;-66
2024/03/02 11:00:33;;;;;;;6.00;3.78;;;17.70;93.20;;;;;;7369615;19;20019;-64
2024/03/02 11:03:06;;;;;;;4.65;1.40;;;18.40;93.00;;;;;;7371078;19;20022;-69
2024/03/02 11:05:36;;;;;;;3.33;1.08;;;18.90;91.20;;;;;;7366545;19;20074;-70
2024/03/02 11:08:25;;;;;;;3.55;1.40;;;18.70;92.60;;;;;;7370281;19;20339;-61
2024/03/02 11:10:57;;;;;;;3.05;0.73;;;18.10;91.00;;;;;;7372561;19;20019;-62
2024/03/02 11:13:31;;;;;;;5.45;3.38;;;18.80;90.70;;;;;;7371878;19;20431;-66
2024/03/02 11:16:21;;;;;;;4.75;2.45;;;19.30;91.80;;;;;;7370046;19;20010;-66
2024/03/02 11:18:49;;;;;;;2.20;1.00;;;19.10;88.60;;;;;;7372711;19;20586;-65
2024/03/02 11:21:16;;;;;;;3.05;0.90;;;18.40;90.60;;;;;;7374231;19;20034;-65
2024/03/02 11:24:21;;;;;;;5.03;1.75;;;18.30;90.50;;;;;;7367575;19;20024;-61
2024/03/02 11:27:08;;;;;;;3.20;1.13;;;18.10;89.30;;;;;;7372755;19;20466;-55
2024/03/02 11:29:38;;;;;;;3.67;1.60;;;17.50;90.50;;;;;;7366426;19;20018;-60
2024/03/02 11:32:07;;;;;;;4.80;0.82;;;16.80;90.00;;;;;;7374252;19;20049;-68
2024/03/02 11:34:53;;;;;;;4.20;1.80;;;16.30;91.80;;;;;;7366936;19;20022;-59
2024/03/02 11:37:21;;;;;;;2.35;1.00;;;17.10;92.30;;;;;;7372333;19;20101;-61
2024/03/02 11:40:10;;;;;;;6.97;1.70;;;18.00;91.90;;;;;;7374173;19;20733;-62
2024/03/02 11:42:59;;;;;;;4.63;1.40;;;18.80;91.40;;;;;;7369379;19;20026;-62
2024/03/02 11:45:45;;;;;;;2.88;0.90;;;19.10;90.30;;;;;;7370638;19;20430;-64
2024/03/02 11:48:15;;;;;;;5.50;1.67;;;19.70;89.60;;;;;;7368673;19;20090;-63
2024/03/02 11:51:01;;;;;;;4.55;2.30;;;20.00;89.00;;;;;;7374324;19;20479;-65
2024/03/02 11:53:30;;;;;;;7.38;4.63;;;20.30;87.40;;;;;;7365669;19;20024;-64
2024/03/02 11:55:57;;;;;;;4.22;1.00;;;20.40;86.40;;;;;;7373825;19;20018;-64
2024/03/02 11:58:24;;;;;;;3.38;1.05;;;19.30;85.70;;;;;;7370038;19;20022;-65
2024/03/02 12:00:52;;;;;;;3.58;0.90;;;19.10;84.70;;;;;;7375586;19;20018;-64
2024/03/02 12:03:20;;;;;;;2.83;1.00;;;18.80;84.40;;;;;;7375163;19;20898;-63
2024/03/02 12:06:07;;;;;;;2.63;1.10;;;19.10;84.90;;;;;;7369452;19;20011;-65
2024/03/02 12:08:33;;;;;;;3.78;1.00;;;19.60;85.00;;;;;;7370019;19;20022;-65
2024/03/02 12:11:01;;;;;;;3.60;0.90;;;19.50;84.40;;;;;;7375594;19;20019;-64
2024/03/02 12:13:27;;;;;;;3.08;0.98;;;20.10;83.50;;;;;;7373303;19;20018;-67
2024/03/02 12:16:23;;;;;;;2.90;1.20;;;19.90;82.30;;;;;;7365130;19;20027;-63
2024/03/02 12:18:50;;;;;;;2.28;1.30;;;20.50;82.20;;;;;;7369092;19;20767;-64
2024/03/02 12:21:17;;;;;;;2.40;1.30;;;20.30;81.70;;;;;;7375463;19;20474;-64
2024/03/02 12:24:03;;;;;;;4.50;2.42;;;20.80;81.70;;;;;;7367498;19;20466;-64
2024/03/02 12:26:30;;;;;;;2.65;1.50;;;20.70;80.00;;;;;;7370393;19;20785;-65
2024/03/02 12:28:57;;;;;;;11.55;9.18;;;20.50;79.40;;;;;;7368080;19;20018;-67
2024/03/02 12:31:45;;;;;;;4.45;1.73;;;20.80;79.20;;;;;;7369527;19;20089;-70
2024/03/02 12:34:16;;;;;;;4.40;2.15;;;21.10;79.20;;;;;;7378089;19;20019;-71
2024/03/02 12:36:43;;;;;;;5.32;2.13;;;20.40;78.80;;;;;;7384021;19;20022;-72
2024/03/02 12:39:30;;;;;;;2.70;1.67;;;19.90;77.80;;;;;;7374472;19;20014;-73
2024/03/02 12:41:56;;;;;;;14.55;12.43;;;19.20;79.20;;;;;;7378891;19;20026;-70
2024/03/02 12:44:26;;;;;;;4.03;2.58;;;19.60;82.20;;;;;;7381956;19;20051;-74
2024/03/02 12:47:13;;;;;;;4.45;1.77;;;19.30;79.70;;;;;;7374127;19;20117;-75
2024/03/02 12:49:42;;;;;;;4.75;1.70;;;20.10;79.80;;;;;;7389622;19;20019;-74
2024/03/02 12:52:11;;;;;;;3.97;1.40;;;20.30;79.40;;;;;;7391258;19;20022;-74
2024/03/02 12:54:59;;;;;;;2.75;1.33;;;20.70;77.10;;;;;;7377776;19;20023;-74
2024/03/02 12:57:29;;;;;;;3.78;1.30;;;20.60;74.40;;;;;;7387822;19;20014;-75
2024/03/02 13:00:22;;;;;;;3.08;1.65;;;20.30;75.90;;;;;;7375419;19;20085;-68
2024/03/02 13:03:08;;;;;;;5.20;1.55;;;20.20;74.30;;;;;;7367870;19;20054;-66
2024/03/02 13:05:35;;;;;;;2.90;1.25;;;20.60;76.20;;;;;;7371317;19;20043;-68
2024/03/02 13:08:04;;;;;;;2.38;1.50;;;20.50;74.30;;;;;;7373385;19;20011;-78
2024/03/02 13:10:46;;;;;;;2.97;1.45;;;20.50;73.20;;;;;;7374215;19;20601;-68
2024/03/02 13:13:14;;;;;;;4.15;1.60;;;20.20;73.30;;;;;;7378200;19;20515;-70
2024/03/02 13:15:40;;;;;;;3.25;1.20;;;20.60;73.20;;;;;;7376764;19;20922;-68